createdAt,value
2023-05-07T00:00:47.554Z,96303.25
2023-05-07T00:03:15.841Z,96301.56
2023-05-07T00:05:45.047Z,96304.28
2023-05-07T00:08:13.294Z,96294.31
2023-05-07T00:10:41.079Z,96307.25
2023-05-07T00:13:08.902Z,96297.59
2023-05-07T00:15:36.730Z,96315.69
2023-05-07T00:18:04.652Z,96308.94
2023-05-07T00:20:33.941Z,96296.22
2023-05-07T00:23:04.744Z,96306.72
2023-05-07T00:25:32.491Z,96302.97
2023-05-07T00:28:04.573Z,96293.91
2023-05-07T00:30:32.191Z,96298.66
2023-05-07T00:33:00.088Z,96281.56
2023-05-07T00:35:28.126Z,96284.00
2023-05-07T00:37:56.055Z,96280.72
2023-05-07T00:40:25.356Z,96286.94
2023-05-07T00:42:57.787Z,96295.81
2023-05-07T00:45:28.975Z,96289.06
2023-05-07T00:47:58.070Z,96294.41
2023-05-07T00:50:26.203Z,96294.94
2023-05-07T00:52:54.215Z,96268.22
2023-05-07T00:55:21.962Z,96264.53
2023-05-07T00:57:52.299Z,96285.94
2023-05-07T01:00:20.904Z,96286.72
2023-05-07T01:02:48.783Z,96277.41
2023-05-07T01:05:18.869Z,96283.50
2023-05-07T01:07:48.126Z,96284.28
2023-05-07T01:10:17.044Z,96284.75
2023-05-07T01:12:48.012Z,96291.50
2023-05-07T01:15:17.481Z,96280.34
2023-05-07T01:17:46.304Z,96289.88
2023-05-07T01:20:15.188Z,96274.94
2023-05-07T01:22:45.595Z,96269.16
2023-05-07T01:25:14.632Z,96286.38
2023-05-07T01:27:42.441Z,96279.53
2023-05-07T01:30:10.998Z,96291.34
2023-05-07T01:32:43.186Z,96282.28
2023-05-07T01:35:14.139Z,96275.50
2023-05-07T01:37:42.877Z,96282.78
2023-05-07T01:40:13.166Z,96287.31
2023-05-07T01:42:41.697Z,96280.41
2023-05-07T01:45:10.285Z,96285.53
2023-05-07T01:47:39.279Z,96285.72
2023-05-07T01:50:09.666Z,96289.25
2023-05-07T01:52:39.364Z,96285.72
2023-05-07T01:55:08.663Z,96279.53
2023-05-07T01:57:37.878Z,96263.31
2023-05-07T02:00:07.355Z,96278.47
2023-05-07T02:02:35.229Z,96266.13
2023-05-07T02:05:03.452Z,96269.34
2023-05-07T02:07:31.204Z,96284.09
2023-05-07T02:09:58.922Z,96237.50
2023-05-07T02:12:26.782Z,96280.50
2023-05-07T02:14:55.978Z,96288.91
2023-05-07T02:17:24.002Z,96283.59
2023-05-07T02:19:51.896Z,96301.81
2023-05-07T02:22:20.237Z,96301.94
2023-05-07T02:24:48.074Z,96301.44
2023-05-07T02:27:15.847Z,96300.41
2023-05-07T02:29:43.667Z,96302.69
2023-05-07T02:32:12.913Z,96302.13
2023-05-07T02:34:40.722Z,96303.06
2023-05-07T02:37:08.467Z,96300.78
2023-05-07T02:39:36.339Z,96307.59
2023-05-07T02:42:04.215Z,96316.03
2023-05-07T02:44:32.645Z,96310.13
2023-05-07T02:47:00.329Z,96307.78
2023-05-07T02:49:29.424Z,96321.25
2023-05-07T02:51:57.338Z,96318.03
2023-05-07T02:54:25.162Z,96318.63
2023-05-07T02:56:52.992Z,96320.94
2023-05-07T02:59:20.843Z,96312.28
2023-05-07T03:01:49.453Z,96313.91
2023-05-07T03:04:18.153Z,96299.38
2023-05-07T03:06:47.413Z,96301.25
2023-05-07T03:09:15.274Z,96308.66
2023-05-07T03:11:43.064Z,96306.84
2023-05-07T03:14:10.741Z,96308.97
2023-05-07T03:16:38.511Z,96301.97
2023-05-07T03:19:06.555Z,96303.53
2023-05-07T03:21:35.360Z,96295.97
2023-05-07T03:24:04.611Z,96291.09
2023-05-07T03:26:32.367Z,96300.94
2023-05-07T03:29:00.206Z,96304.00
2023-05-07T03:31:28.057Z,96293.03
2023-05-07T03:33:57.441Z,96294.34
2023-05-07T03:36:26.197Z,96307.66
2023-05-07T03:38:54.400Z,96305.88
2023-05-07T03:41:23.665Z,96309.84
2023-05-07T03:43:51.389Z,96304.50
2023-05-07T03:46:19.245Z,96323.09
2023-05-07T03:48:47.139Z,96323.72
2023-05-07T03:51:14.923Z,96316.44
2023-05-07T03:53:42.758Z,96324.25
2023-05-07T03:56:10.564Z,96319.56
2023-05-07T03:58:39.650Z,96331.19
2023-05-07T04:01:08.480Z,96324.41
2023-05-07T04:03:36.494Z,96319.53
2023-05-07T04:06:04.664Z,96330.25
2023-05-07T04:08:32.596Z,96337.72
2023-05-07T04:11:01.394Z,96333.91
2023-05-07T04:13:29.740Z,96334.78
2023-05-07T04:15:58.991Z,96336.72
2023-05-07T04:18:26.767Z,96333.75
2023-05-07T04:20:54.670Z,96331.16
2023-05-07T04:23:22.595Z,96336.97
2023-05-07T04:25:50.576Z,96326.81
2023-05-07T04:28:20.334Z,96345.72
2023-05-07T04:30:48.356Z,96340.00
2023-05-07T04:33:19.563Z,96341.25
2023-05-07T04:35:47.317Z,96348.56
2023-05-07T04:38:15.086Z,96340.41
2023-05-07T04:40:43.350Z,96344.59
2023-05-07T04:43:11.308Z,96347.81
2023-05-07T04:45:41.612Z,96340.84
2023-05-07T04:48:09.647Z,96331.47
2023-05-07T04:50:39.481Z,96340.03
2023-05-07T04:53:07.333Z,96350.88
2023-05-07T04:55:35.283Z,96331.22
2023-05-07T04:58:03.155Z,96351.38
2023-05-07T05:00:31.151Z,96351.88
2023-05-07T05:02:59.032Z,96339.81
2023-05-07T05:05:26.808Z,96354.00
2023-05-07T05:07:56.141Z,96348.19
2023-05-07T05:10:24.714Z,96350.91
2023-05-07T05:12:52.780Z,96354.16
2023-05-07T05:15:20.789Z,96362.03
2023-05-07T05:17:48.618Z,96368.13
2023-05-07T05:20:16.456Z,96360.97
2023-05-07T05:22:44.551Z,96381.22
2023-05-07T05:25:13.669Z,96364.75
2023-05-07T05:27:41.456Z,96373.06
2023-05-07T05:30:10.282Z,96370.41
2023-05-07T05:32:38.242Z,96377.13
2023-05-07T05:35:07.144Z,96383.31
2023-05-07T05:37:34.954Z,96381.59
2023-05-07T05:40:02.727Z,96381.16
2023-05-07T05:42:31.909Z,96378.53
2023-05-07T05:44:59.648Z,96379.31
2023-05-07T05:47:27.606Z,96379.31
2023-05-07T05:49:55.399Z,96359.16
2023-05-07T05:52:24.757Z,96375.53
2023-05-07T05:54:52.544Z,96373.34
2023-05-07T05:57:20.435Z,96379.56
2023-05-07T05:59:50.265Z,96380.56
2023-05-07T06:02:18.292Z,96377.19
2023-05-07T06:04:46.302Z,96369.44
2023-05-07T06:07:14.355Z,96389.81
2023-05-07T06:09:42.114Z,96397.25
2023-05-07T06:12:09.809Z,96412.63
2023-05-07T06:14:37.630Z,96416.44
2023-05-07T06:17:06.782Z,96415.47
2023-05-07T06:19:34.633Z,96408.03
2023-05-07T06:22:03.654Z,96411.88
2023-05-07T06:24:31.501Z,96415.66
2023-05-07T06:26:59.690Z,96420.78
2023-05-07T06:29:27.696Z,96426.94
2023-05-07T06:31:57.569Z,96424.81
2023-05-07T06:34:26.859Z,96422.91
2023-05-07T06:36:54.607Z,96414.81
2023-05-07T06:39:22.378Z,96392.94
2023-05-07T06:41:50.153Z,96436.16
2023-05-07T06:44:17.970Z,96437.25
2023-05-07T06:46:46.452Z,96429.47
2023-05-07T06:49:14.411Z,96424.34
2023-05-07T06:51:43.606Z,96429.44
2023-05-07T06:54:11.627Z,96432.41
2023-05-07T06:56:39.416Z,96423.53
2023-05-07T06:59:07.222Z,96429.94
2023-05-07T07:01:35.027Z,96419.94
2023-05-07T07:04:02.824Z,96416.63
2023-05-07T07:06:32.728Z,96429.41
2023-05-07T07:09:02.559Z,96424.00
2023-05-07T07:11:30.482Z,96423.19
2023-05-07T07:13:58.454Z,96412.75
2023-05-07T07:16:26.293Z,96403.72
2023-05-07T07:18:54.176Z,96412.06
2023-05-07T07:21:22.183Z,96413.22
2023-05-07T07:23:50.027Z,96400.06
2023-05-07T07:26:19.465Z,96405.84
2023-05-07T07:28:47.819Z,96411.03
2023-05-07T07:31:16.294Z,96403.75
2023-05-07T07:33:44.092Z,96414.22
2023-05-07T07:36:12.083Z,96409.75
2023-05-07T07:38:39.870Z,96419.53
2023-05-07T07:41:07.717Z,96416.69
2023-05-07T07:43:37.706Z,96412.31
2023-05-07T07:46:06.269Z,96417.41
2023-05-07T07:48:33.995Z,96420.41
2023-05-07T07:51:01.721Z,96417.91
2023-05-07T07:53:29.404Z,96415.31
2023-05-07T07:55:59.530Z,96423.06
2023-05-07T07:58:27.872Z,96428.00
2023-05-07T08:00:57.488Z,96430.31
2023-05-07T08:03:25.450Z,96421.06
2023-05-07T08:05:53.290Z,96419.88
2023-05-07T08:08:21.320Z,96427.63
2023-05-07T08:10:51.019Z,96432.53
2023-05-07T08:13:19.336Z,96430.31
2023-05-07T08:15:47.123Z,96427.41
2023-05-07T08:18:16.312Z,96437.97
2023-05-07T08:20:44.102Z,96444.22
2023-05-07T08:23:11.876Z,96440.47
2023-05-07T08:25:39.597Z,96438.03
2023-05-07T08:28:09.645Z,96437.50
2023-05-07T08:30:37.762Z,96437.16
2023-05-07T08:33:05.567Z,96435.47
2023-05-07T08:35:34.649Z,96435.75
2023-05-07T08:38:02.413Z,96435.88
2023-05-07T08:40:31.212Z,96439.47
2023-05-07T08:43:00.064Z,96439.19
2023-05-07T08:45:29.657Z,96445.09
2023-05-07T08:48:00.922Z,96447.34
2023-05-07T08:50:28.763Z,96442.38
2023-05-07T08:52:58.734Z,96438.28
2023-05-07T08:55:26.719Z,96440.94
2023-05-07T08:57:55.080Z,96440.38
2023-05-07T09:00:22.921Z,96438.91
2023-05-07T09:02:50.732Z,96438.34
2023-05-07T09:05:18.691Z,96436.44
2023-05-07T09:07:46.858Z,96440.59
2023-05-07T09:10:16.473Z,96433.53
2023-05-07T09:12:44.345Z,96439.34
2023-05-07T09:15:13.031Z,96432.69
2023-05-07T09:17:42.207Z,96422.97
2023-05-07T09:20:11.272Z,96423.38
2023-05-07T09:22:39.621Z,96426.41
2023-05-07T09:25:09.475Z,96417.53
2023-05-07T09:27:39.258Z,96414.91
2023-05-07T09:30:08.122Z,96417.69
2023-05-07T09:32:38.897Z,96412.72
2023-05-07T09:35:07.769Z,96408.84
2023-05-07T09:37:35.612Z,96405.50
2023-05-07T09:40:04.719Z,96406.97
2023-05-07T09:42:32.543Z,96399.84
2023-05-07T09:45:02.810Z,96392.72
2023-05-07T09:47:34.744Z,96401.50
2023-05-07T09:50:07.905Z,96406.38
2023-05-07T09:52:36.727Z,96407.94
2023-05-07T09:55:07.127Z,96381.53
2023-05-07T09:57:36.362Z,96389.19
2023-05-07T10:00:06.686Z,96400.31
2023-05-07T10:02:37.429Z,96385.66
2023-05-07T10:05:06.498Z,96363.19
2023-05-07T10:07:34.772Z,96378.03
2023-05-07T10:10:05.711Z,96390.56
2023-05-07T10:12:40.092Z,96365.56
2023-05-07T10:15:12.129Z,96377.84
2023-05-07T10:17:41.282Z,96384.09
2023-05-07T10:20:10.928Z,96365.00
2023-05-07T10:25:30.449Z,96364.34
2023-05-07T10:28:00.849Z,96372.44
2023-05-07T10:30:40.518Z,96380.91
2023-05-07T10:33:12.682Z,96378.78
2023-05-07T10:35:43.510Z,96364.50
2023-05-07T10:38:11.871Z,96365.25
2023-05-07T10:40:39.768Z,96360.31
2023-05-07T10:43:10.710Z,96375.03
2023-05-07T10:45:40.390Z,96361.19
2023-05-07T10:48:28.884Z,96366.94
2023-05-07T10:51:20.407Z,96360.03
2023-05-07T10:53:48.327Z,96361.78
2023-05-07T10:56:30.063Z,96364.75
2023-05-07T10:59:02.897Z,96348.81
2023-05-07T11:01:54.970Z,96355.47
2023-05-07T11:04:27.485Z,96357.19
2023-05-07T11:07:27.198Z,96346.34
2023-05-07T11:10:06.558Z,96346.41
2023-05-07T11:12:57.298Z,96344.03
2023-05-07T11:15:39.623Z,96334.47
2023-05-07T11:18:09.145Z,96337.75
2023-05-07T11:20:53.956Z,96342.09
2023-05-07T11:24:00.112Z,96338.59
2023-05-07T11:26:29.284Z,96339.81
2023-05-07T11:28:57.871Z,96341.59
2023-05-07T11:31:28.217Z,96334.94
2023-05-07T11:33:57.724Z,96335.13
2023-05-07T11:36:27.046Z,96327.81
2023-05-07T11:38:55.006Z,96333.78
2023-05-07T11:41:23.759Z,96324.47
2023-05-07T11:43:59.167Z,96334.06
2023-05-07T11:46:27.547Z,96329.09
2023-05-07T11:48:55.681Z,96319.19
2023-05-07T11:51:27.019Z,96319.59
2023-05-07T11:53:55.129Z,96316.47
2023-05-07T11:56:23.120Z,96318.59
2023-05-07T11:58:52.774Z,96319.81
2023-05-07T12:01:20.461Z,96321.06
2023-05-07T12:03:48.802Z,96316.59
2023-05-07T12:06:18.372Z,96324.00
2023-05-07T12:08:48.761Z,96325.03
2023-05-07T12:11:19.499Z,96337.09
2023-05-07T12:13:47.292Z,96317.72
2023-05-07T12:16:15.225Z,96322.09
2023-05-07T12:18:43.567Z,96320.91
2023-05-07T12:21:11.964Z,96326.78
2023-05-07T12:23:40.609Z,96309.75
2023-05-07T12:26:10.977Z,96310.16
2023-05-07T12:28:40.705Z,96315.41
2023-05-07T12:31:09.350Z,96298.75
2023-05-07T12:33:37.809Z,96313.91
2023-05-07T12:36:09.463Z,96318.44
2023-05-07T12:38:38.811Z,96312.75
2023-05-07T12:41:08.254Z,96314.31
2023-05-07T12:43:37.441Z,96327.75
2023-05-07T12:46:06.758Z,96317.84
2023-05-07T12:48:35.192Z,96321.22
2023-05-07T12:51:04.064Z,96316.47
2023-05-07T12:53:32.363Z,96319.84
2023-05-07T12:56:01.758Z,96322.72
2023-05-07T12:58:31.451Z,96325.78
2023-05-07T13:01:01.784Z,96322.63
2023-05-07T13:03:31.392Z,96323.53
2023-05-07T13:06:00.852Z,96319.38
2023-05-07T13:08:30.991Z,96316.31
2023-05-07T13:11:00.147Z,96311.31
2023-05-07T13:13:30.098Z,96307.19
2023-05-07T13:16:01.469Z,96302.84
2023-05-07T13:18:31.772Z,96296.19
2023-05-07T13:21:00.223Z,96289.44
2023-05-07T13:23:28.354Z,96298.81
2023-05-07T13:25:56.888Z,96287.63
2023-05-07T13:28:25.006Z,96292.28
2023-05-07T13:30:53.442Z,96289.47
2023-05-07T13:33:22.588Z,96289.47
2023-05-07T13:35:50.433Z,96266.84
2023-05-07T13:38:18.849Z,96276.69
2023-05-07T13:40:46.746Z,96280.03
2023-05-07T13:43:15.447Z,96284.03
2023-05-07T13:45:43.244Z,96276.66
2023-05-07T13:48:11.218Z,96278.03
2023-05-07T13:50:40.446Z,96285.53
2023-05-07T13:53:08.178Z,96279.94
2023-05-07T13:55:36.067Z,96289.00
2023-05-07T13:58:06.901Z,96297.00
2023-05-07T14:00:35.489Z,96298.59
2023-05-07T14:03:03.930Z,96298.34
2023-05-07T14:05:31.820Z,96295.81
2023-05-07T14:08:00.975Z,96300.31
2023-05-07T14:10:28.820Z,96305.88
2023-05-07T14:12:56.662Z,96305.03
2023-05-07T14:15:24.503Z,96307.75
2023-05-07T14:17:52.345Z,96320.16
2023-05-07T14:20:20.073Z,96314.63
2023-05-07T14:22:47.841Z,96313.19
2023-05-07T14:25:17.148Z,96319.66
2023-05-07T14:27:45.056Z,96323.53
2023-05-07T14:30:13.696Z,96325.34
2023-05-07T14:32:41.452Z,96331.16
2023-05-07T14:35:10.292Z,96330.69
2023-05-07T14:37:38.200Z,96335.81
2023-05-07T14:40:07.282Z,96323.88
2023-05-07T14:42:36.508Z,96331.16
2023-05-07T14:45:04.812Z,96336.94
2023-05-07T14:47:32.650Z,96342.38
2023-05-07T14:50:02.049Z,96351.13
2023-05-07T14:52:30.009Z,96348.03
2023-05-07T14:54:57.745Z,96362.81
2023-05-07T14:57:25.468Z,96363.22
2023-05-07T14:59:54.796Z,96372.97
2023-05-07T15:02:22.991Z,96374.44
2023-05-07T15:04:50.964Z,96378.09
2023-05-07T15:07:18.722Z,96374.47
2023-05-07T15:09:47.491Z,96384.38
2023-05-07T15:12:15.867Z,96393.78
2023-05-07T15:14:43.652Z,96393.47
2023-05-07T15:17:15.958Z,96396.53
2023-05-07T15:19:44.034Z,96393.88
2023-05-07T15:22:11.731Z,96398.19
2023-05-07T15:24:39.558Z,96404.88
2023-05-07T15:27:07.397Z,96396.09
2023-05-07T15:29:35.122Z,96394.94
2023-05-07T15:32:03.098Z,96403.91
2023-05-07T15:34:32.496Z,96408.47
2023-05-07T15:37:00.259Z,96406.38
2023-05-07T15:39:27.984Z,96398.38
2023-05-07T15:41:55.774Z,96415.66
2023-05-07T15:44:23.664Z,96423.44
2023-05-07T15:46:51.806Z,96423.69
2023-05-07T15:49:19.482Z,96429.94
2023-05-07T15:51:48.621Z,96436.41
2023-05-07T15:54:18.116Z,96451.00
2023-05-07T15:56:45.863Z,96449.66
2023-05-07T15:59:15.391Z,96460.47
2023-05-07T16:01:43.674Z,96476.69
2023-05-07T16:04:11.791Z,96481.56
2023-05-07T16:06:39.621Z,96489.94
2023-05-07T16:09:10.224Z,96486.94
2023-05-07T16:11:38.048Z,96472.91
2023-05-07T16:14:05.923Z,96496.94
2023-05-07T16:16:34.789Z,96484.53
2023-05-07T16:19:02.746Z,96496.41
2023-05-07T16:21:31.176Z,96481.56
2023-05-07T16:23:59.022Z,96499.91
2023-05-07T16:26:28.275Z,96478.03
2023-05-07T16:28:56.080Z,96501.53
2023-05-07T16:31:23.861Z,96509.09
2023-05-07T16:33:51.683Z,96509.88
2023-05-07T16:36:19.644Z,96507.13
2023-05-07T16:38:48.051Z,96496.28
2023-05-07T16:41:15.832Z,96514.91
2023-05-07T16:43:44.950Z,96521.63
2023-05-07T16:46:12.754Z,96530.56
2023-05-07T16:48:40.567Z,96533.78
2023-05-07T16:51:08.471Z,96501.34
2023-05-07T16:53:36.768Z,96542.97
2023-05-07T16:56:06.376Z,96561.53
2023-05-07T16:58:34.449Z,96554.50
2023-05-07T17:01:03.877Z,96563.44
2023-05-07T17:03:32.331Z,96555.31
2023-05-07T17:06:00.327Z,96567.47
2023-05-07T17:08:28.119Z,96562.13
2023-05-07T17:10:55.883Z,96562.06
2023-05-07T17:13:23.781Z,96555.31
2023-05-07T17:15:51.654Z,96570.16
2023-05-07T17:18:20.786Z,96562.66
2023-05-07T17:20:48.494Z,96560.72
2023-05-07T17:23:16.744Z,96569.84
2023-05-07T17:25:45.516Z,96554.22
2023-05-07T17:28:13.383Z,96566.09
2023-05-07T17:30:41.325Z,96542.28
2023-05-07T17:33:20.239Z,96549.00
2023-05-07T17:35:50.939Z,96579.59
2023-05-07T17:38:18.667Z,96574.22
2023-05-07T17:40:46.364Z,96579.28
2023-05-07T17:43:14.124Z,96580.59
2023-05-07T17:45:42.093Z,96596.72
2023-05-07T17:48:09.958Z,96586.50
2023-05-07T17:50:37.767Z,96595.13
2023-05-07T17:53:07.843Z,96603.75
2023-05-07T17:55:40.438Z,96611.25
2023-05-07T17:58:09.757Z,96611.09
2023-05-07T18:00:37.880Z,96616.72
2023-05-07T18:03:06.320Z,96617.72
2023-05-07T18:05:37.504Z,96621.00
2023-05-07T18:08:08.262Z,96627.19
2023-05-07T18:10:36.157Z,96623.72
2023-05-07T18:13:03.976Z,96642.28
2023-05-07T18:15:31.706Z,96646.44
2023-05-07T18:17:59.593Z,96641.59
2023-05-07T18:20:27.384Z,96648.88
2023-05-07T18:22:55.070Z,96644.25
2023-05-07T18:25:24.496Z,96646.00
2023-05-07T18:27:52.364Z,96650.34
2023-05-07T18:30:20.688Z,96653.91
2023-05-07T18:32:48.497Z,96649.75
2023-05-07T18:35:17.004Z,96631.13
2023-05-07T18:37:44.811Z,96650.94
2023-05-07T18:40:13.743Z,96660.25
2023-05-07T18:42:43.065Z,96658.09
2023-05-07T18:45:11.570Z,96643.44
2023-05-07T18:47:39.465Z,96640.22
2023-05-07T18:50:08.431Z,96657.50
2023-05-07T18:52:36.647Z,96653.63
2023-05-07T18:55:05.353Z,96662.78
2023-05-07T18:57:33.158Z,96675.03
2023-05-07T19:00:02.361Z,96667.94
2023-05-07T19:02:30.129Z,96659.97
2023-05-07T19:04:57.977Z,96656.06
2023-05-07T19:07:25.869Z,96684.00
2023-05-07T19:10:04.376Z,96680.84
2023-05-07T19:12:33.697Z,96680.00
2023-05-07T19:15:03.035Z,96694.06
2023-05-07T19:17:30.961Z,96689.69
2023-05-07T19:19:58.777Z,96683.78
2023-05-07T19:22:26.955Z,96699.34
2023-05-07T19:24:54.947Z,96694.72
2023-05-07T19:27:22.996Z,96705.41
2023-05-07T19:29:51.068Z,96708.53
2023-05-07T19:32:21.357Z,96727.63
2023-05-07T19:34:49.448Z,96718.69
2023-05-07T19:37:17.572Z,96722.44
2023-05-07T19:39:46.220Z,96747.59
2023-05-07T19:42:14.785Z,96747.16
2023-05-07T19:44:42.635Z,96749.03
2023-05-07T19:47:11.076Z,96711.56
2023-05-07T19:49:40.231Z,96734.31
2023-05-07T19:52:08.081Z,96743.00
2023-05-07T19:54:37.056Z,96744.84
2023-05-07T19:57:05.017Z,96762.56
2023-05-07T19:59:32.832Z,96770.13
2023-05-07T20:02:00.722Z,96763.59
2023-05-07T20:04:32.978Z,96771.16
2023-05-07T20:07:02.337Z,96774.41
2023-05-07T20:09:30.280Z,96786.41
2023-05-07T20:11:58.180Z,96785.66
2023-05-07T20:14:27.139Z,96779.44
2023-05-07T20:16:57.982Z,96782.66
2023-05-07T20:19:25.964Z,96783.56
2023-05-07T20:21:55.057Z,96786.91
2023-05-07T20:24:24.711Z,96794.41
2023-05-07T20:26:52.941Z,96809.00
2023-05-07T20:29:23.759Z,96804.97
2023-05-07T20:31:51.656Z,96793.47
2023-05-07T20:34:19.823Z,96795.72
2023-05-07T20:36:48.222Z,96793.16
2023-05-07T20:39:17.108Z,96788.78
2023-05-07T20:41:46.481Z,96779.84
2023-05-07T20:44:17.363Z,96767.38
2023-05-07T20:46:47.370Z,96783.91
2023-05-07T20:49:15.384Z,96770.66
2023-05-07T20:51:43.219Z,96784.78
2023-05-07T20:54:12.996Z,96776.88
2023-05-07T20:56:43.424Z,96783.81
2023-05-07T20:59:12.876Z,96784.00
2023-05-07T21:01:42.755Z,96786.56
2023-05-07T21:04:10.885Z,96796.91
2023-05-07T21:06:38.877Z,96795.78
2023-05-07T21:09:07.907Z,96794.31
2023-05-07T21:11:36.201Z,96801.41
2023-05-07T21:14:04.331Z,96802.06
2023-05-07T21:16:33.790Z,96798.16
2023-05-07T21:19:01.815Z,96801.09
2023-05-07T21:21:29.665Z,96790.31
2023-05-07T21:23:57.490Z,96812.94
2023-05-07T21:26:25.873Z,96792.09
2023-05-07T21:28:53.961Z,96821.41
2023-05-07T21:31:21.824Z,96789.25
2023-05-07T21:33:53.168Z,96789.09
2023-05-07T21:36:21.244Z,96803.34
2023-05-07T21:38:49.013Z,96806.72
2023-05-07T21:41:16.987Z,96811.94
2023-05-07T21:43:44.834Z,96794.94
2023-05-07T21:46:12.606Z,96802.66
2023-05-07T21:48:40.369Z,96792.03
2023-05-07T21:51:09.819Z,96799.38
2023-05-07T21:53:37.810Z,96801.03
2023-05-07T21:56:06.672Z,96802.00
2023-05-07T21:58:34.463Z,96801.09
2023-05-07T22:01:02.662Z,96799.13
2023-05-07T22:03:30.682Z,96809.59
2023-05-07T22:05:58.556Z,96811.78
2023-05-07T22:08:27.796Z,96804.31
2023-05-07T22:10:55.590Z,96790.38
2023-05-07T22:13:26.375Z,96802.00
2023-05-07T22:15:58.162Z,96789.75
2023-05-07T22:18:26.734Z,96816.97
2023-05-07T22:20:54.807Z,96815.56
2023-05-07T22:23:22.622Z,96812.75
2023-05-07T22:25:52.623Z,96805.09
2023-05-07T22:28:20.848Z,96807.81
2023-05-07T22:30:48.649Z,96811.59
2023-05-07T22:33:16.607Z,96798.28
2023-05-07T22:35:44.618Z,96816.75
2023-05-07T22:38:12.367Z,96795.06
2023-05-07T22:40:42.287Z,96813.50
2023-05-07T22:43:13.945Z,96806.56
2023-05-07T22:45:41.708Z,96812.00
2023-05-07T22:48:09.795Z,96808.59
2023-05-07T22:50:38.844Z,96809.19
2023-05-07T22:53:07.549Z,96798.66
2023-05-07T22:55:35.839Z,96814.88
2023-05-07T22:58:04.156Z,96816.31
2023-05-07T23:00:33.441Z,96815.06
2023-05-07T23:03:01.529Z,96810.72
2023-05-07T23:05:29.774Z,96798.44
2023-05-07T23:07:58.235Z,96800.06
2023-05-07T23:10:29.035Z,96796.19
2023-05-07T23:12:56.955Z,96809.84
2023-05-07T23:15:24.790Z,96807.47
2023-05-07T23:17:54.009Z,96799.88
2023-05-07T23:20:22.309Z,96803.31
2023-05-07T23:22:50.231Z,96801.63
2023-05-07T23:25:18.393Z,96797.97
2023-05-07T23:27:46.258Z,96791.75
2023-05-07T23:30:15.046Z,96792.94
2023-05-07T23:32:43.493Z,96797.28
2023-05-07T23:35:12.846Z,96797.81
2023-05-07T23:37:40.762Z,96798.06
2023-05-07T23:40:09.655Z,96797.47
2023-05-07T23:42:37.744Z,96801.31
2023-05-07T23:45:06.315Z,96795.69
2023-05-07T23:47:34.338Z,96793.59
2023-05-07T23:50:02.244Z,96804.66
2023-05-07T23:52:31.444Z,96811.78
2023-05-07T23:54:59.393Z,96809.44
2023-05-07T23:57:27.285Z,96811.13
2023-05-07T23:59:55.288Z,96809.94
